createdAt,value
2024-04-19T00:01:40.703Z,99.90
2024-04-19T00:04:17.276Z,99.90
2024-04-19T00:06:53.656Z,99.90
2024-04-19T00:09:30.157Z,99.90
2024-04-19T00:12:10.315Z,99.90
2024-04-19T00:14:43.655Z,99.90
2024-04-19T00:17:19.594Z,99.90
2024-04-19T00:19:52.912Z,99.90
2024-04-19T00:22:28.973Z,99.90
2024-04-19T00:25:04.931Z,99.90
2024-04-19T00:27:40.995Z,99.90
2024-04-19T00:30:17.020Z,99.90
2024-04-19T00:33:05.291Z,99.90
2024-04-19T00:35:48.656Z,99.90
2024-04-19T00:38:24.691Z,99.90
2024-04-19T00:40:58.087Z,99.90
2024-04-19T00:43:36.788Z,99.90
2024-04-19T00:46:10.560Z,99.90
2024-04-19T00:48:47.944Z,99.90
2024-04-19T00:51:21.985Z,99.90
2024-04-19T00:53:58.387Z,99.90
2024-04-19T00:56:32.713Z,99.90
2024-04-19T00:59:11.516Z,99.90
2024-04-19T01:01:44.941Z,99.90
2024-04-19T01:04:22.283Z,99.90
2024-04-19T01:06:58.447Z,99.90
2024-04-19T01:09:37.272Z,99.90
2024-04-19T01:12:11.263Z,99.90
2024-04-19T01:14:50.021Z,99.90
2024-04-19T01:17:23.383Z,99.90
2024-04-19T01:19:59.441Z,99.90
2024-04-19T01:22:32.751Z,99.90
2024-04-19T01:25:13.856Z,99.90
2024-04-19T01:27:52.437Z,99.90
2024-04-19T01:30:26.018Z,99.90
2024-04-19T01:33:04.088Z,99.90
2024-04-19T01:35:37.621Z,99.90
2024-04-19T01:38:13.603Z,99.90
2024-04-19T01:40:56.116Z,99.90
2024-04-19T01:43:34.669Z,99.90
2024-04-19T01:46:08.001Z,99.90
2024-04-19T01:48:43.943Z,99.90
2024-04-19T01:51:17.234Z,99.90
2024-04-19T01:53:53.295Z,99.90
2024-04-19T01:56:29.474Z,99.90
2024-04-19T01:59:08.001Z,99.90
2024-04-19T02:01:41.339Z,99.90
2024-04-19T02:04:17.327Z,99.90
2024-04-19T02:06:53.505Z,99.90
2024-04-19T02:09:33.834Z,99.90
2024-04-19T02:12:09.768Z,99.90
2024-04-19T02:14:55.582Z,99.90
2024-04-19T02:17:28.956Z,99.90
2024-04-19T02:20:05.228Z,99.90
2024-04-19T02:22:38.557Z,99.90
2024-04-19T02:25:14.417Z,99.90
2024-04-19T02:28:06.616Z,99.90
2024-04-19T02:31:01.155Z,99.90
2024-04-19T02:33:37.481Z,99.90
2024-04-19T02:36:15.235Z,99.90
2024-04-19T02:38:51.209Z,99.90
2024-04-19T02:41:32.295Z,99.90
2024-04-19T02:44:08.350Z,99.90
2024-04-19T02:49:36.537Z,99.90
2024-04-19T02:52:09.892Z,99.90
2024-04-19T02:54:45.993Z,99.90
2024-04-19T02:57:24.554Z,99.90
2024-04-19T03:00:00.580Z,99.90
2024-04-19T03:02:39.086Z,99.90
2024-04-19T03:05:15.033Z,99.80
2024-04-19T03:07:50.955Z,99.80
2024-04-19T03:10:30.165Z,99.80
2024-04-19T03:13:11.814Z,99.80
2024-04-19T03:15:50.302Z,99.80
2024-04-19T03:18:28.967Z,99.70
2024-04-19T03:21:06.256Z,99.70
2024-04-19T03:23:42.093Z,99.80
2024-04-19T03:26:18.057Z,99.80
2024-04-19T03:28:54.111Z,99.80
2024-04-19T03:31:30.058Z,99.80
2024-04-19T03:34:09.004Z,99.80
2024-04-19T03:36:45.137Z,99.80
2024-04-19T03:39:21.562Z,99.80
2024-04-19T03:41:57.942Z,99.80
2024-04-19T03:44:49.992Z,99.80
2024-04-19T03:47:26.140Z,99.80
2024-04-19T03:50:09.368Z,99.80
2024-04-19T03:52:45.306Z,99.70
2024-04-19T03:55:24.752Z,99.80
2024-04-19T03:58:01.153Z,99.80
2024-04-19T04:00:42.086Z,99.70
2024-04-19T04:03:18.033Z,99.70
2024-04-19T04:05:59.447Z,99.70
2024-04-19T04:08:35.313Z,99.60
2024-04-19T04:11:16.067Z,99.50
2024-04-19T04:13:57.483Z,99.50
2024-04-19T04:16:35.580Z,99.50
2024-04-19T04:19:17.287Z,99.50
2024-04-19T04:22:02.423Z,99.50
2024-04-19T04:24:41.325Z,99.40
2024-04-19T04:27:17.316Z,99.30
2024-04-19T04:29:55.981Z,99.30
2024-04-19T04:32:35.062Z,99.30
2024-04-19T04:35:11.563Z,99.20
2024-04-19T04:37:50.338Z,99.20
2024-04-19T04:40:26.364Z,99.40
2024-04-19T04:43:05.447Z,99.20
2024-04-19T04:45:41.392Z,99.20
2024-04-19T04:48:20.477Z,99.30
2024-04-19T04:51:01.479Z,99.30
2024-04-19T04:53:40.154Z,99.40
2024-04-19T04:56:15.988Z,99.30
2024-04-19T04:58:52.013Z,99.30
2024-04-19T05:01:27.946Z,99.30
2024-04-19T05:04:03.938Z,99.30
2024-04-19T05:06:49.031Z,99.30
2024-04-19T05:09:27.495Z,99.30
2024-04-19T05:12:07.421Z,99.20
2024-04-19T05:14:43.362Z,99.10
2024-04-19T05:17:22.260Z,99.00
2024-04-19T05:20:05.433Z,98.90
2024-04-19T05:22:41.523Z,98.70
2024-04-19T05:25:20.714Z,98.60
2024-04-19T05:27:59.600Z,98.50
2024-04-19T05:30:39.039Z,98.20
2024-04-19T05:33:17.160Z,98.10
2024-04-19T05:35:53.021Z,98.00
2024-04-19T05:38:28.931Z,97.80
2024-04-19T05:41:11.986Z,97.90
2024-04-19T05:43:50.260Z,97.80
2024-04-19T05:46:28.623Z,97.60
2024-04-19T05:49:06.957Z,97.40
2024-04-19T05:51:45.051Z,97.30
2024-04-19T05:54:21.143Z,97.10
2024-04-19T05:57:00.020Z,96.90
2024-04-19T05:59:39.130Z,96.70
2024-04-19T06:02:17.329Z,96.60
2024-04-19T06:04:55.923Z,96.40
2024-04-19T06:07:33.463Z,96.20
2024-04-19T06:10:12.992Z,96.00
2024-04-19T06:12:51.553Z,95.90
2024-04-19T06:15:27.635Z,95.70
2024-04-19T06:18:03.611Z,95.30
2024-04-19T06:20:40.934Z,95.30
2024-04-19T06:23:24.137Z,95.20
2024-04-19T06:26:06.786Z,95.10
2024-04-19T06:28:48.778Z,95.00
2024-04-19T06:31:24.718Z,94.90
2024-04-19T06:34:00.552Z,94.90
2024-04-19T06:36:36.375Z,94.80
2024-04-19T06:39:23.465Z,94.70
2024-04-19T06:42:00.204Z,94.50
2024-04-19T06:44:42.905Z,94.40
2024-04-19T06:47:24.232Z,94.30
2024-04-19T06:50:00.269Z,94.50
2024-04-19T06:52:36.291Z,94.20
2024-04-19T06:55:12.689Z,94.00
2024-04-19T06:57:49.022Z,93.90
2024-04-19T07:00:37.396Z,93.80
2024-04-19T07:03:23.670Z,93.80
2024-04-19T07:06:01.864Z,93.80
2024-04-19T07:08:37.808Z,93.80
2024-04-19T07:11:15.955Z,93.60
2024-04-19T07:14:00.599Z,93.60
2024-04-19T07:16:44.341Z,93.30
2024-04-19T07:19:20.228Z,93.10
2024-04-19T07:21:59.202Z,93.00
2024-04-19T07:24:37.150Z,92.80
2024-04-19T07:27:13.319Z,92.50
2024-04-19T07:29:49.261Z,92.40
2024-04-19T07:32:27.856Z,92.30
2024-04-19T07:35:04.016Z,92.00
2024-04-19T07:37:39.935Z,91.70
2024-04-19T07:40:15.789Z,91.70
2024-04-19T07:42:54.279Z,91.60
2024-04-19T07:45:30.389Z,91.50
2024-04-19T07:48:12.137Z,91.50
2024-04-19T07:50:48.959Z,91.60
2024-04-19T07:53:25.186Z,91.80
2024-04-19T07:56:01.440Z,92.00
2024-04-19T07:58:38.424Z,91.90
2024-04-19T08:01:24.300Z,92.00
2024-04-19T08:04:12.890Z,92.20
2024-04-19T08:06:54.918Z,92.30
2024-04-19T08:09:33.459Z,92.60
2024-04-19T08:12:18.623Z,92.40
2024-04-19T08:14:56.972Z,92.60
2024-04-19T08:17:32.841Z,92.60
2024-04-19T08:20:12.103Z,92.70
2024-04-19T08:22:53.691Z,92.70
2024-04-19T08:25:32.478Z,92.70
2024-04-19T08:28:11.507Z,92.70
2024-04-19T08:30:47.631Z,92.90
2024-04-19T08:33:23.739Z,93.00
2024-04-19T08:36:10.469Z,92.90
2024-04-19T08:38:51.044Z,93.00
2024-04-19T08:41:47.583Z,93.10
2024-04-19T08:44:23.971Z,93.00
2024-04-19T08:47:00.789Z,93.10
2024-04-19T08:49:42.369Z,93.30
2024-04-19T08:52:50.554Z,93.20
2024-04-19T08:55:33.948Z,93.20
2024-04-19T08:58:13.941Z,93.10
2024-04-19T09:00:52.497Z,93.10
2024-04-19T09:03:33.065Z,93.30
2024-04-19T09:06:11.491Z,93.30
2024-04-19T09:08:53.198Z,93.30
2024-04-19T09:11:29.293Z,93.50
2024-04-19T09:14:08.416Z,93.50
2024-04-19T09:16:44.997Z,93.70
2024-04-19T09:19:21.085Z,93.80
2024-04-19T09:22:02.187Z,93.90
2024-04-19T09:24:44.554Z,93.90
2024-04-19T09:27:22.696Z,94.10
2024-04-19T09:30:02.821Z,94.10
2024-04-19T09:32:39.656Z,94.20
2024-04-19T09:35:18.917Z,94.30
2024-04-19T09:37:55.603Z,94.30
2024-04-19T09:40:46.437Z,94.10
2024-04-19T09:43:23.430Z,93.90
2024-04-19T09:46:03.490Z,94.20
2024-04-19T09:48:41.839Z,94.30
2024-04-19T09:51:18.892Z,94.40
2024-04-19T09:54:12.992Z,94.50
2024-04-19T09:57:05.663Z,94.60
2024-04-19T09:59:43.618Z,94.60
2024-04-19T10:02:27.473Z,94.60
2024-04-19T10:05:09.274Z,94.50
2024-04-19T10:08:01.989Z,94.50
2024-04-19T10:10:38.190Z,94.60
2024-04-19T10:13:20.176Z,94.70
2024-04-19T10:16:02.211Z,94.70
2024-04-19T10:18:48.326Z,94.80
2024-04-19T10:21:28.589Z,94.90
2024-04-19T10:24:16.890Z,95.00
2024-04-19T10:26:55.237Z,95.10
2024-04-19T10:29:34.172Z,94.80
2024-04-19T10:32:10.764Z,94.70
2024-04-19T10:35:00.583Z,94.80
2024-04-19T10:37:36.660Z,95.20
2024-04-19T10:40:19.095Z,95.10
2024-04-19T10:43:05.701Z,95.10
2024-04-19T10:45:50.296Z,95.10
2024-04-19T10:48:27.406Z,95.00
2024-04-19T10:51:05.969Z,95.20
2024-04-19T10:53:44.032Z,95.00
2024-04-19T10:56:20.898Z,94.90
2024-04-19T10:59:00.037Z,94.80
2024-04-19T11:01:41.990Z,94.90
2024-04-19T11:04:18.615Z,94.90
2024-04-19T11:06:58.110Z,94.80
2024-04-19T11:09:36.669Z,94.80
2024-04-19T11:12:15.430Z,95.00
2024-04-19T11:14:51.299Z,94.80
2024-04-19T11:17:29.799Z,94.80
2024-04-19T11:20:06.175Z,94.90
2024-04-19T11:22:42.288Z,94.90
2024-04-19T11:25:18.347Z,94.90
2024-04-19T11:27:54.576Z,94.90
2024-04-19T11:30:32.163Z,94.80
2024-04-19T11:33:11.697Z,94.80
2024-04-19T11:35:48.539Z,94.90
2024-04-19T11:38:26.175Z,95.00
2024-04-19T11:41:04.316Z,95.00
2024-04-19T11:43:40.445Z,95.00
2024-04-19T11:46:27.084Z,95.10
2024-04-19T11:49:09.770Z,95.10
2024-04-19T11:51:46.630Z,95.20
2024-04-19T11:54:27.818Z,95.50
2024-04-19T11:57:06.628Z,95.40
2024-04-19T11:59:42.509Z,95.50
2024-04-19T12:02:18.347Z,95.70
2024-04-19T12:04:58.620Z,95.60
2024-04-19T12:07:34.876Z,95.70
2024-04-19T12:10:11.400Z,95.70
2024-04-19T12:13:30.742Z,95.80
2024-04-19T12:16:28.926Z,95.70
2024-04-19T12:18:44.851Z,96.00
2024-04-19T12:21:24.142Z,96.20
2024-04-19T12:24:05.067Z,96.30
2024-04-19T12:26:44.760Z,96.20
2024-04-19T12:29:23.489Z,96.10
2024-04-19T12:32:00.745Z,96.20
2024-04-19T12:34:41.831Z,96.20
2024-04-19T12:37:20.560Z,96.20
2024-04-19T12:39:59.682Z,96.90
2024-04-19T12:42:35.694Z,96.50
2024-04-19T12:45:14.955Z,96.70
2024-04-19T12:47:53.565Z,96.60
2024-04-19T12:50:29.510Z,96.50
2024-04-19T12:53:10.362Z,96.40
2024-04-19T12:55:48.880Z,96.50
2024-04-19T12:58:25.449Z,96.70
2024-04-19T13:01:05.393Z,96.60
2024-04-19T13:03:51.227Z,96.60
2024-04-19T13:06:35.500Z,96.70
2024-04-19T13:09:14.233Z,96.70
2024-04-19T13:11:52.371Z,96.70
2024-04-19T13:14:30.615Z,96.60
2024-04-19T13:17:06.780Z,96.70
2024-04-19T13:19:42.730Z,96.70
2024-04-19T13:22:18.648Z,96.60
2024-04-19T13:24:57.220Z,96.70
2024-04-19T13:27:35.753Z,96.70
2024-04-19T13:30:13.261Z,96.60
2024-04-19T13:32:49.192Z,96.60
2024-04-19T13:35:25.196Z,96.70
2024-04-19T13:38:01.807Z,96.60
2024-04-19T13:40:40.287Z,96.60
2024-04-19T13:43:17.069Z,96.50
2024-04-19T13:45:58.037Z,96.50
2024-04-19T13:48:39.044Z,96.60
2024-04-19T13:51:18.038Z,96.70
2024-04-19T13:53:56.083Z,96.80
2024-04-19T13:56:37.354Z,96.90
2024-04-19T13:59:15.629Z,97.10
2024-04-19T14:01:52.985Z,97.30
2024-04-19T14:04:29.003Z,97.20
2024-04-19T14:07:06.171Z,97.40
2024-04-19T14:09:46.481Z,97.20
2024-04-19T14:12:25.194Z,97.20
2024-04-19T14:15:03.331Z,97.10
2024-04-19T14:17:39.240Z,97.10
2024-04-19T14:20:15.700Z,97.20
2024-04-19T14:22:53.798Z,97.30
2024-04-19T14:25:29.814Z,97.40
2024-04-19T14:28:11.984Z,97.30
2024-04-19T14:30:50.321Z,97.40
2024-04-19T14:33:30.946Z,97.40
2024-04-19T14:36:08.086Z,97.50
2024-04-19T14:38:44.137Z,97.50
2024-04-19T14:41:26.118Z,97.70
2024-04-19T14:44:13.399Z,97.70
2024-04-19T14:46:49.340Z,97.70
2024-04-19T14:49:25.506Z,97.50
2024-04-19T14:52:12.435Z,97.40
2024-04-19T14:54:52.304Z,97.50
2024-04-19T14:57:36.360Z,97.40
2024-04-19T15:00:16.230Z,97.60
2024-04-19T15:02:52.967Z,97.70
2024-04-19T15:05:36.325Z,97.80
2024-04-19T15:08:12.171Z,98.10
2024-04-19T15:10:54.420Z,98.30
2024-04-19T15:13:32.525Z,97.80
2024-04-19T15:16:13.062Z,97.80
2024-04-19T15:18:49.189Z,97.80
2024-04-19T15:21:28.689Z,97.70
2024-04-19T15:24:04.943Z,97.60
2024-04-19T15:26:40.869Z,97.50
2024-04-19T15:29:19.665Z,97.50
2024-04-19T15:32:04.307Z,97.60
2024-04-19T15:34:47.839Z,97.60
2024-04-19T15:37:24.672Z,97.50
2024-04-19T15:40:05.933Z,97.50
2024-04-19T15:42:46.910Z,97.60
2024-04-19T15:45:23.654Z,97.70
2024-04-19T15:48:15.580Z,98.40
2024-04-19T15:50:57.693Z,97.80
2024-04-19T15:53:33.389Z,98.30
2024-04-19T15:56:09.624Z,97.90
2024-04-19T15:58:48.621Z,98.00
2024-04-19T16:01:26.781Z,97.80
2024-04-19T16:04:05.550Z,97.80
2024-04-19T16:06:47.728Z,97.90
2024-04-19T16:09:23.747Z,97.90
2024-04-19T16:12:01.961Z,97.90
2024-04-19T16:14:37.804Z,98.00
2024-04-19T16:17:13.926Z,98.00
2024-04-19T16:19:58.042Z,98.10
2024-04-19T16:22:36.246Z,98.20
2024-04-19T16:25:15.226Z,98.30
2024-04-19T16:27:54.055Z,98.10
2024-04-19T16:30:32.405Z,97.90
2024-04-19T16:33:11.539Z,97.90
2024-04-19T16:36:00.792Z,98.10
2024-04-19T16:38:42.178Z,97.90
2024-04-19T16:41:26.228Z,98.20
2024-04-19T16:44:04.930Z,98.30
2024-04-19T16:46:50.360Z,98.30
2024-04-19T16:49:29.172Z,98.20
2024-04-19T16:52:11.657Z,98.20
2024-04-19T16:54:47.710Z,98.10
2024-04-19T16:57:26.288Z,98.00
2024-04-19T17:00:02.137Z,98.00
2024-04-19T17:02:44.149Z,98.10
2024-04-19T17:05:24.751Z,98.20
2024-04-19T17:08:04.755Z,98.10
2024-04-19T17:10:46.167Z,98.20
2024-04-19T17:13:25.961Z,98.30
2024-04-19T17:16:01.851Z,98.30
2024-04-19T17:18:42.254Z,98.60
2024-04-19T17:21:18.236Z,98.60
2024-04-19T17:23:56.879Z,98.70
2024-04-19T17:26:34.880Z,98.80
2024-04-19T17:29:10.982Z,98.80
2024-04-19T17:31:47.235Z,99.00
2024-04-19T17:34:28.911Z,98.70
2024-04-19T17:37:04.968Z,98.70
2024-04-19T17:39:43.901Z,98.80
2024-04-19T17:42:23.218Z,98.90
2024-04-19T17:44:59.220Z,98.70
2024-04-19T17:47:35.465Z,98.50
2024-04-19T17:50:17.269Z,98.40
2024-04-19T17:52:53.295Z,98.40
2024-04-19T17:55:32.765Z,98.30
2024-04-19T17:58:21.405Z,98.50
2024-04-19T18:00:57.345Z,98.40
2024-04-19T18:03:33.309Z,98.40
2024-04-19T18:06:09.524Z,98.40
2024-04-19T18:08:54.731Z,98.30
2024-04-19T18:11:35.794Z,98.40
2024-04-19T18:14:19.185Z,98.30
2024-04-19T18:16:58.197Z,98.30
2024-04-19T18:19:34.520Z,98.30
2024-04-19T18:22:10.993Z,98.20
2024-04-19T18:24:50.316Z,98.70
2024-04-19T18:27:29.295Z,98.80
2024-04-19T18:30:13.097Z,99.50
2024-04-19T18:32:52.024Z,98.70
2024-04-19T18:35:33.038Z,98.30
2024-04-19T18:38:16.997Z,98.20
2024-04-19T18:40:55.746Z,98.30
2024-04-19T18:43:37.844Z,98.30
2024-04-19T18:46:20.241Z,98.30
2024-04-19T18:48:56.469Z,98.40
2024-04-19T18:51:32.704Z,98.70
2024-04-19T18:54:17.141Z,98.80
2024-04-19T18:56:55.898Z,99.50
2024-04-19T18:59:34.799Z,99.00
2024-04-19T19:02:13.928Z,99.90
2024-04-19T19:04:49.906Z,99.90
2024-04-19T19:07:29.118Z,99.90
2024-04-19T19:10:07.425Z,99.90
2024-04-19T19:12:44.122Z,99.90
2024-04-19T19:15:22.756Z,99.90
2024-04-19T19:17:58.814Z,99.90
2024-04-19T19:20:38.057Z,99.90
2024-04-19T19:23:14.709Z,99.90
2024-04-19T19:25:51.092Z,99.90
2024-04-19T19:28:33.128Z,99.90
2024-04-19T19:31:12.112Z,99.90
2024-04-19T19:33:55.427Z,99.90
2024-04-19T19:36:31.801Z,99.90
2024-04-19T19:39:08.003Z,99.90
2024-04-19T19:41:47.037Z,99.90
2024-04-19T19:44:26.276Z,99.90
2024-04-19T19:47:11.439Z,99.90
2024-04-19T19:49:47.765Z,99.90
2024-04-19T19:52:24.122Z,99.90
2024-04-19T19:55:02.268Z,99.90
2024-04-19T19:57:48.833Z,99.90
2024-04-19T20:00:43.767Z,99.90
2024-04-19T20:03:38.651Z,99.90
2024-04-19T20:06:18.747Z,99.90
2024-04-19T20:08:56.481Z,99.90
2024-04-19T20:11:32.959Z,99.90
2024-04-19T20:14:15.568Z,99.90
2024-04-19T20:16:51.806Z,99.90
2024-04-19T20:19:30.622Z,99.90
2024-04-19T20:22:07.119Z,99.90
2024-04-19T20:24:43.212Z,99.90
2024-04-19T20:27:19.483Z,99.90
2024-04-19T20:29:58.320Z,99.90
2024-04-19T20:32:39.199Z,99.90
2024-04-19T20:35:26.233Z,99.90
2024-04-19T20:38:02.513Z,99.90
2024-04-19T20:40:38.672Z,99.90
2024-04-19T20:43:20.217Z,99.90
2024-04-19T20:45:57.491Z,99.90
2024-04-19T20:48:40.854Z,99.90
2024-04-19T20:51:19.761Z,99.90
2024-04-19T20:53:59.315Z,99.90
2024-04-19T20:56:40.993Z,99.90
2024-04-19T20:59:20.137Z,99.90
2024-04-19T21:01:58.452Z,99.90
2024-04-19T21:04:37.559Z,99.90
2024-04-19T21:07:16.657Z,99.90
2024-04-19T21:10:02.021Z,99.90
2024-04-19T21:12:40.315Z,99.90
2024-04-19T21:15:17.238Z,99.90
2024-04-19T21:17:53.317Z,99.90
2024-04-19T21:20:30.651Z,99.90
2024-04-19T21:23:10.665Z,99.90
2024-04-19T21:25:46.650Z,99.90
2024-04-19T21:28:22.642Z,99.90
2024-04-19T21:31:04.968Z,99.90
2024-04-19T21:33:46.434Z,99.90
2024-04-19T21:36:22.332Z,99.90
2024-04-19T21:39:01.142Z,99.90
2024-04-19T21:41:37.112Z,99.90
2024-04-19T21:44:13.220Z,99.90
2024-04-19T21:46:51.356Z,99.90
2024-04-19T21:49:27.196Z,99.90
2024-04-19T21:52:04.282Z,99.90
2024-04-19T21:54:43.154Z,99.90
2024-04-19T21:57:22.164Z,99.90
2024-04-19T22:00:04.220Z,99.90
2024-04-19T22:02:40.480Z,99.90
2024-04-19T22:05:16.615Z,99.90
2024-04-19T22:08:12.261Z,99.90
2024-04-19T22:10:51.096Z,99.90
2024-04-19T22:13:27.355Z,99.90
2024-04-19T22:16:09.128Z,99.90
2024-04-19T22:18:45.474Z,99.90
2024-04-19T22:21:22.349Z,99.90
2024-04-19T22:23:58.509Z,99.90
2024-04-19T22:26:40.629Z,99.90
2024-04-19T22:29:22.670Z,99.90
2024-04-19T22:31:58.628Z,99.90
2024-04-19T22:34:34.616Z,99.90
2024-04-19T22:37:10.421Z,99.90
2024-04-19T22:39:52.483Z,99.90
2024-04-19T22:42:31.170Z,99.90
2024-04-19T22:45:08.451Z,99.90
2024-04-19T22:47:44.541Z,99.90
2024-04-19T22:50:20.436Z,99.90
2024-04-19T22:52:59.451Z,99.90
2024-04-19T22:55:35.595Z,99.90
2024-04-19T22:58:14.243Z,99.90
2024-04-19T23:00:50.376Z,99.90
2024-04-19T23:03:30.841Z,99.90
2024-04-19T23:06:08.835Z,99.90
2024-04-19T23:08:44.986Z,99.90
2024-04-19T23:11:20.869Z,99.90
2024-04-19T23:13:59.590Z,99.90
2024-04-19T23:16:35.438Z,99.90
2024-04-19T23:19:11.636Z,99.90
2024-04-19T23:21:47.793Z,99.90
2024-04-19T23:24:23.747Z,99.90
2024-04-19T23:27:01.792Z,99.90
2024-04-19T23:29:40.311Z,99.90
2024-04-19T23:32:16.220Z,99.90
2024-04-19T23:34:52.708Z,99.90
2024-04-19T23:37:28.516Z,99.90
2024-04-19T23:40:05.375Z,99.90
2024-04-19T23:42:41.295Z,99.90
2024-04-19T23:45:19.885Z,99.90
2024-04-19T23:47:55.987Z,99.90
2024-04-19T23:50:37.226Z,99.90
2024-04-19T23:53:15.235Z,99.90
2024-04-19T23:55:54.502Z,99.90
2024-04-19T23:58:30.409Z,99.90
